Time;durP1;ratioP1;P1;durP2;ratioP2;P2;SDS_P1;SDS_P2;PMS_P1;PMS_P2;Temp;Humidity;BMP_temperature;BMP_pressure;BME280_temperature;BME280_humidity;BME280_pressure;Samples;Min_cycle;Max_cycle;Signal;HPM_P1;HPM_P2
2024/04/19 00:00:22;;;;;;;23.73;21.65;;;6.20;99.90;;;;;;5350700;26;20076;-72
2024/04/19 00:02:49;;;;;;;24.27;22.15;;;6.20;99.90;;;;;;5382952;26;20000;-73
2024/04/19 00:05:17;;;;;;;24.05;21.77;;;6.30;99.90;;;;;;5355443;26;20713;-74
2024/04/19 00:07:44;;;;;;;24.05;21.92;;;6.30;99.90;;;;;;5378189;26;20003;-73
2024/04/19 00:10:11;;;;;;;23.40;21.52;;;6.20;99.90;;;;;;5380370;26;20821;-73
2024/04/19 00:12:38;;;;;;;23.70;21.60;;;6.20;99.90;;;;;;5370464;26;20012;-74
2024/04/19 00:15:06;;;;;;;23.50;21.10;;;6.10;99.90;;;;;;5382532;26;20000;-73
2024/04/19 00:17:34;;;;;;;23.60;21.67;;;6.20;99.90;;;;;;5340807;26;20016;-73
2024/04/19 00:20:02;;;;;;;23.42;21.48;;;6.20;99.90;;;;;;5352456;26;20067;-74
2024/04/19 00:22:29;;;;;;;22.95;21.13;;;6.20;99.90;;;;;;5351512;26;20572;-74
2024/04/19 00:24:58;;;;;;;23.42;21.33;;;6.20;99.90;;;;;;5348530;26;20012;-73
2024/04/19 00:27:25;;;;;;;23.92;21.70;;;6.20;99.90;;;;;;5385871;26;20037;-72
2024/04/19 00:29:52;;;;;;;25.15;22.67;;;6.10;99.90;;;;;;5375815;26;20077;-72
2024/04/19 00:32:20;;;;;;;24.95;22.67;;;6.10;99.90;;;;;;5375097;26;20003;-73
2024/04/19 00:34:47;;;;;;;24.30;22.23;;;6.10;99.90;;;;;;5361409;26;20000;-73
2024/04/19 00:37:14;;;;;;;25.85;23.65;;;6.10;99.90;;;;;;5374813;26;20010;-74
2024/04/19 00:39:41;;;;;;;27.05;24.23;;;6.10;99.90;;;;;;5375056;26;20032;-73
2024/04/19 00:42:08;;;;;;;26.88;24.25;;;6.10;99.90;;;;;;5386037;26;20023;-73
2024/04/19 00:44:35;;;;;;;26.33;24.00;;;6.00;99.90;;;;;;5357015;26;20782;-73
2024/04/19 00:47:03;;;;;;;27.23;24.48;;;6.00;99.90;;;;;;5319186;26;20005;-73
2024/04/19 00:49:32;;;;;;;27.92;25.40;;;6.10;99.90;;;;;;5379265;26;20015;-73
2024/04/19 00:52:03;;;;;;;29.13;25.50;;;6.00;99.90;;;;;;5381457;26;20003;-73
2024/04/19 00:54:32;;;;;;;29.38;26.35;;;6.00;99.90;;;;;;5382667;26;20076;-74
2024/04/19 00:57:01;;;;;;;28.98;26.20;;;6.00;99.90;;;;;;5380211;26;20018;-73
2024/04/19 00:59:28;;;;;;;28.02;25.30;;;5.90;99.90;;;;;;5383990;26;20013;-75
2024/04/19 01:01:55;;;;;;;28.15;25.67;;;6.00;99.90;;;;;;5389501;26;20043;-75
2024/04/19 01:04:23;;;;;;;28.27;25.60;;;6.00;99.90;;;;;;5393507;26;20007;-74
2024/04/19 01:06:50;;;;;;;27.27;24.58;;;6.00;99.90;;;;;;5389549;26;20026;-75
2024/04/19 01:09:18;;;;;;;26.42;23.85;;;5.90;99.90;;;;;;5395618;26;19996;-74
2024/04/19 01:11:45;;;;;;;27.52;25.05;;;5.90;99.90;;;;;;5383598;26;20010;-73
2024/04/19 01:14:12;;;;;;;26.02;23.40;;;6.00;99.90;;;;;;5356702;26;20552;-75
2024/04/19 01:16:39;;;;;;;25.95;23.58;;;6.00;99.90;;;;;;5400132;26;20003;-73
2024/04/19 01:19:07;;;;;;;26.25;23.85;;;6.00;99.90;;;;;;5389595;26;19995;-74
2024/04/19 01:21:35;;;;;;;26.00;23.60;;;6.00;99.90;;;;;;5385704;26;20004;-73
2024/04/19 01:24:16;;;;;;;26.58;24.17;;;6.00;99.90;;;;;;5389818;26;20019;-74
2024/04/19 01:26:45;;;;;;;25.75;23.55;;;6.00;99.90;;;;;;5382645;26;21785;-75
2024/04/19 01:29:12;;;;;;;25.75;23.35;;;6.00;99.90;;;;;;5361556;26;20054;-74
2024/04/19 01:31:41;;;;;;;24.98;22.77;;;6.00;99.90;;;;;;5430978;26;20043;-74
2024/04/19 01:34:08;;;;;;;26.08;23.70;;;6.00;99.90;;;;;;5376238;26;20015;-75
2024/04/19 01:36:36;;;;;;;25.50;23.05;;;6.00;99.90;;;;;;5381805;26;20038;-75
2024/04/19 01:39:03;;;;;;;24.98;22.98;;;6.00;99.90;;;;;;5365811;26;20031;-75
2024/04/19 01:41:31;;;;;;;25.27;22.88;;;5.90;99.90;;;;;;5400844;26;20003;-72
2024/04/19 01:43:58;;;;;;;25.33;23.08;;;5.90;99.90;;;;;;5408001;26;20084;-73
2024/04/19 01:46:26;;;;;;;24.77;22.33;;;5.90;99.90;;;;;;5407364;26;19988;-73
2024/04/19 01:48:54;;;;;;;23.65;21.67;;;5.90;99.90;;;;;;5391824;26;20920;-75
2024/04/19 01:51:21;;;;;;;22.92;21.15;;;5.90;99.90;;;;;;5392036;26;20000;-76
2024/04/19 01:53:48;;;;;;;21.85;20.05;;;5.90;99.90;;;;;;5383850;26;20023;-74
2024/04/19 01:56:15;;;;;;;23.15;20.77;;;5.80;99.90;;;;;;5385904;26;20011;-74
2024/04/19 01:58:42;;;;;;;22.30;20.48;;;5.80;99.90;;;;;;5398491;26;20015;-73
2024/04/19 02:01:09;;;;;;;22.35;20.40;;;5.90;99.90;;;;;;5396981;26;20010;-76
2024/04/19 02:03:40;;;;;;;22.13;20.52;;;5.90;99.90;;;;;;5383477;26;20665;-74
2024/04/19 02:06:15;;;;;;;22.70;20.60;;;5.80;99.90;;;;;;5387681;26;20140;-75
2024/04/19 02:08:42;;;;;;;21.73;20.05;;;5.80;99.90;;;;;;5377075;26;20135;-75
2024/04/19 02:11:09;;;;;;;21.35;19.83;;;5.70;99.90;;;;;;5387191;26;19999;-74
2024/04/19 02:13:36;;;;;;;20.83;19.30;;;5.60;99.90;;;;;;5382950;26;20104;-73
2024/04/19 02:16:04;;;;;;;21.10;19.40;;;5.50;99.90;;;;;;5386598;26;20060;-73
2024/04/19 02:18:31;;;;;;;21.13;19.52;;;5.30;99.90;;;;;;5378977;26;20012;-73
2024/04/19 02:20:58;;;;;;;20.38;18.80;;;5.00;99.90;;;;;;5389627;26;20012;-74
2024/04/19 02:23:35;;;;;;;22.13;20.52;;;4.90;99.90;;;;;;5395703;26;20022;-74
2024/04/19 02:26:03;;;;;;;21.70;20.02;;;4.80;99.90;;;;;;5380934;26;20688;-76
2024/04/19 02:31:17;;;;;;;21.27;19.25;;;4.50;99.90;;;;;;5386152;26;20213;-76
2024/04/19 02:33:45;;;;;;;19.88;17.95;;;4.40;99.90;;;;;;5378064;26;20030;-78
2024/04/19 02:36:13;;;;;;;20.02;17.23;;;4.40;99.90;;;;;;5400664;26;20704;-77
2024/04/19 02:38:42;;;;;;;20.00;18.30;;;4.40;99.90;;;;;;5383939;26;19999;-79
2024/04/19 02:41:09;;;;;;;18.10;16.38;;;4.40;99.90;;;;;;5361846;26;20084;-77
2024/04/19 02:43:36;;;;;;;19.20;16.65;;;4.40;99.90;;;;;;5318002;26;20012;-77
2024/04/19 02:46:05;;;;;;;18.17;16.27;;;4.30;99.90;;;;;;5295703;26;20006;-77
2024/04/19 02:48:33;;;;;;;19.23;16.60;;;4.30;99.90;;;;;;5288739;26;20015;-75
2024/04/19 02:51:05;;;;;;;21.63;16.55;;;4.30;99.90;;;;;;5296933;26;20000;-77
2024/04/19 02:53:33;;;;;;;21.92;16.75;;;4.30;99.90;;;;;;5289599;26;20019;-76
2024/04/19 02:58:54;;;;;;;20.35;15.77;;;4.30;99.90;;;;;;5281448;26;20060;-77
2024/04/19 03:01:21;;;;;;;18.85;15.90;;;4.40;99.90;;;;;;5296895;26;19999;-76
2024/04/19 03:03:50;;;;;;;18.88;16.77;;;4.30;99.90;;;;;;5385160;26;20010;-77
2024/04/19 03:06:17;;;;;;;22.75;15.68;;;4.40;99.90;;;;;;5385891;26;20008;-77
2024/04/19 03:08:44;;;;;;;20.23;14.88;;;4.40;99.90;;;;;;5355729;26;20011;-77
2024/04/19 03:11:11;;;;;;;19.60;15.70;;;4.40;99.90;;;;;;5355380;26;20004;-76
2024/04/19 03:13:39;;;;;;;18.27;14.10;;;4.30;99.90;;;;;;5377480;26;20046;-77
2024/04/19 03:16:07;;;;;;;18.15;14.50;;;4.30;99.90;;;;;;5358182;26;19997;-78
2024/04/19 03:18:41;;;;;;;21.85;15.48;;;4.40;99.90;;;;;;5387214;26;20002;-78
2024/04/19 03:21:09;;;;;;;22.35;16.08;;;4.30;99.90;;;;;;5378190;26;20012;-78
2024/04/19 03:23:36;;;;;;;28.83;17.02;;;4.30;99.90;;;;;;5317988;26;20011;-77
2024/04/19 03:26:04;;;;;;;25.23;16.23;;;4.30;99.90;;;;;;5332094;26;20834;-78
2024/04/19 03:28:31;;;;;;;21.60;15.25;;;4.30;99.90;;;;;;5314726;26;20048;-78
2024/04/19 03:30:59;;;;;;;26.10;15.18;;;4.30;99.90;;;;;;5370730;26;20073;-78
2024/04/19 03:33:30;;;;;;;21.05;16.50;;;4.30;99.90;;;;;;5354939;26;20004;-83
2024/04/19 03:36:06;;;;;;;26.05;18.30;;;4.30;99.90;;;;;;5389690;26;20010;-78
2024/04/19 03:38:34;;;;;;;18.33;13.70;;;4.30;99.90;;;;;;5381270;26;20016;-76
2024/04/19 03:41:02;;;;;;;21.88;16.83;;;4.20;99.90;;;;;;5385874;26;20546;-78
2024/04/19 03:43:40;;;;;;;24.63;19.42;;;4.30;99.90;;;;;;5390674;26;20007;-78
2024/04/19 03:46:07;;;;;;;23.73;17.52;;;4.30;99.90;;;;;;5382699;26;20723;-78
2024/04/19 03:48:35;;;;;;;27.10;19.38;;;4.20;99.90;;;;;;5349141;26;20000;-77
2024/04/19 03:51:02;;;;;;;24.83;17.13;;;4.20;99.90;;;;;;5358346;26;20041;-77
2024/04/19 03:53:30;;;;;;;24.10;18.48;;;4.20;99.90;;;;;;5389886;26;20034;-78
2024/04/19 03:55:58;;;;;;;26.38;19.75;;;4.20;99.90;;;;;;5382324;26;20000;-78
2024/04/19 03:58:25;;;;;;;25.77;16.13;;;4.20;99.90;;;;;;5413936;26;20007;-77
2024/04/19 04:00:52;;;;;;;23.88;16.40;;;4.20;99.90;;;;;;5381157;26;20064;-77
2024/04/19 04:03:19;;;;;;;22.80;18.58;;;4.10;99.90;;;;;;5352312;26;20023;-77
2024/04/19 04:05:51;;;;;;;23.05;18.73;;;4.10;99.90;;;;;;5344001;26;20287;-77
2024/04/19 04:08:18;;;;;;;18.13;15.50;;;4.10;99.90;;;;;;5343923;26;20019;-77
2024/04/19 04:10:46;;;;;;;24.40;18.00;;;4.10;99.90;;;;;;5348930;26;20019;-78
2024/04/19 04:13:13;;;;;;;25.20;19.73;;;4.10;99.90;;;;;;5381005;26;20018;-76
2024/04/19 04:15:41;;;;;;;21.88;18.92;;;4.10;99.90;;;;;;5340200;26;20135;-77
2024/04/19 04:18:08;;;;;;;26.15;19.67;;;4.10;99.90;;;;;;5348706;26;21886;-77
2024/04/19 04:20:35;;;;;;;23.15;18.63;;;4.10;99.90;;;;;;5383181;26;20004;-79
2024/04/19 04:23:03;;;;;;;31.30;22.13;;;4.00;99.90;;;;;;5376415;26;20027;-78
2024/04/19 04:25:33;;;;;;;26.63;20.05;;;4.00;99.90;;;;;;5399130;26;20016;-77
2024/04/19 04:28:02;;;;;;;29.67;23.02;;;4.00;99.90;;;;;;5352153;26;20018;-77
2024/04/19 04:30:29;;;;;;;28.65;22.10;;;4.00;99.90;;;;;;5350972;26;20308;-77
2024/04/19 04:32:56;;;;;;;32.33;23.58;;;4.00;99.90;;;;;;5353853;26;19999;-77
2024/04/19 04:35:24;;;;;;;32.95;23.48;;;4.00;99.90;;;;;;5367994;26;20020;-77
2024/04/19 04:37:52;;;;;;;36.78;26.35;;;4.00;99.90;;;;;;5411260;26;20035;-77
2024/04/19 04:40:19;;;;;;;31.20;22.27;;;4.00;99.90;;;;;;5358895;26;20054;-77
2024/04/19 04:42:49;;;;;;;31.70;23.38;;;4.10;99.90;;;;;;5361322;26;20000;-75
2024/04/19 04:45:16;;;;;;;25.80;20.80;;;4.00;99.90;;;;;;5402736;26;20004;-76
2024/04/19 04:47:43;;;;;;;29.58;22.50;;;4.00;99.90;;;;;;5385721;26;20000;-77
2024/04/19 04:50:10;;;;;;;23.58;19.23;;;4.00;99.90;;;;;;5407837;26;19999;-77
2024/04/19 04:52:38;;;;;;;22.00;17.92;;;4.00;99.90;;;;;;5389101;26;20079;-75
2024/04/19 04:55:06;;;;;;;22.08;17.27;;;4.00;99.90;;;;;;5393225;26;20011;-75
2024/04/19 04:57:34;;;;;;;28.05;21.30;;;4.00;99.90;;;;;;5395977;26;20010;-77
2024/04/19 05:00:06;;;;;;;22.98;18.88;;;4.10;99.90;;;;;;5384302;26;20011;-76
2024/04/19 05:02:34;;;;;;;19.65;16.52;;;4.10;99.90;;;;;;5365412;26;20376;-78
2024/04/19 05:05:02;;;;;;;25.88;19.48;;;4.10;99.90;;;;;;5386616;26;20010;-77
2024/04/19 05:07:29;;;;;;;25.88;20.67;;;4.10;99.90;;;;;;5385629;26;20007;-78
2024/04/19 05:09:57;;;;;;;28.30;21.25;;;4.20;99.90;;;;;;5393947;26;20022;-77
2024/04/19 05:12:24;;;;;;;24.77;20.88;;;4.20;99.90;;;;;;5398760;26;20003;-76
2024/04/19 05:14:53;;;;;;;21.80;17.13;;;4.20;99.90;;;;;;5396783;26;20039;-78
2024/04/19 05:17:20;;;;;;;23.60;20.73;;;4.20;99.90;;;;;;5392652;26;20047;-78
2024/04/19 05:19:47;;;;;;;22.95;19.23;;;4.10;99.90;;;;;;5333751;26;20433;-77
2024/04/19 05:22:14;;;;;;;18.50;16.27;;;4.10;99.90;;;;;;5398872;26;20014;-77
2024/04/19 05:24:45;;;;;;;20.90;18.67;;;4.20;99.90;;;;;;5389433;26;20014;-78
2024/04/19 05:27:12;;;;;;;19.58;17.48;;;4.20;99.90;;;;;;5393830;26;20008;-77
2024/04/19 05:29:39;;;;;;;17.02;15.30;;;4.20;99.90;;;;;;5385551;26;20082;-77
2024/04/19 05:32:07;;;;;;;19.60;16.33;;;4.20;99.90;;;;;;5329447;26;20022;-76
2024/04/19 05:34:34;;;;;;;17.20;14.68;;;4.30;99.90;;;;;;5400083;26;20007;-79
2024/04/19 05:37:03;;;;;;;18.05;15.23;;;4.30;99.90;;;;;;5369914;26;20010;-77
2024/04/19 05:39:30;;;;;;;17.48;14.85;;;4.20;99.90;;;;;;5393869;26;20057;-78
2024/04/19 05:41:57;;;;;;;17.65;13.93;;;4.30;99.90;;;;;;5397378;26;20766;-77
2024/04/19 05:44:31;;;;;;;15.48;13.85;;;4.30;99.90;;;;;;5406005;26;19999;-78
2024/04/19 05:46:59;;;;;;;14.23;12.73;;;4.30;99.90;;;;;;5364821;26;21062;-78
2024/04/19 05:49:29;;;;;;;12.18;10.98;;;4.40;99.90;;;;;;5311278;26;20008;-76
2024/04/19 05:51:58;;;;;;;12.18;10.45;;;4.30;99.90;;;;;;5360712;26;21037;-78
2024/04/19 05:54:27;;;;;;;14.98;12.27;;;4.30;99.90;;;;;;5370985;26;20536;-79
2024/04/19 05:56:54;;;;;;;12.15;10.90;;;4.40;99.90;;;;;;5354651;26;20004;-77
2024/04/19 05:59:23;;;;;;;9.73;8.75;;;4.30;99.90;;;;;;5347371;26;20019;-78
2024/04/19 06:01:51;;;;;;;10.90;9.90;;;4.30;99.90;;;;;;5348202;26;20001;-78
2024/04/19 06:04:33;;;;;;;10.68;9.68;;;4.30;99.90;;;;;;5349053;26;20000;-77
2024/04/19 06:07:01;;;;;;;10.05;9.25;;;4.30;99.90;;;;;;5307892;26;20012;-79
2024/04/19 06:09:32;;;;;;;10.10;9.20;;;4.30;99.90;;;;;;5380205;26;20003;-78
2024/04/19 06:12:01;;;;;;;8.88;8.13;;;4.30;99.90;;;;;;5348025;26;20023;-79
2024/04/19 06:14:29;;;;;;;8.57;7.78;;;4.30;99.90;;;;;;5243657;26;20011;-78
2024/04/19 06:16:56;;;;;;;8.80;8.00;;;4.30;99.90;;;;;;5315911;26;20538;-76
2024/04/19 06:19:24;;;;;;;8.40;7.70;;;4.30;99.90;;;;;;5291626;26;20090;-77
2024/04/19 06:21:52;;;;;;;9.00;8.20;;;4.40;99.90;;;;;;5348918;26;20760;-78
2024/04/19 06:24:23;;;;;;;8.15;7.45;;;4.40;99.90;;;;;;5346016;26;20015;-79
2024/04/19 06:26:50;;;;;;;9.23;8.30;;;4.40;99.90;;;;;;5349079;26;20526;-77
2024/04/19 06:29:18;;;;;;;9.98;9.02;;;4.50;99.90;;;;;;5326132;26;22071;-76
2024/04/19 06:31:45;;;;;;;10.25;8.57;;;4.50;99.90;;;;;;5320824;26;20071;-76
2024/04/19 06:34:13;;;;;;;7.80;7.00;;;4.50;99.90;;;;;;5351555;26;20018;-79
2024/04/19 06:36:41;;;;;;;6.82;6.32;;;4.50;99.90;;;;;;5351804;26;20008;-78
2024/04/19 06:39:19;;;;;;;6.65;6.07;;;4.50;99.90;;;;;;5318382;26;20027;-77
2024/04/19 06:41:47;;;;;;;7.65;6.95;;;4.50;99.90;;;;;;5367711;26;20673;-79
2024/04/19 06:44:15;;;;;;;7.47;6.88;;;4.50;99.90;;;;;;5356998;26;20019;-76
2024/04/19 06:46:42;;;;;;;6.80;6.30;;;4.60;99.90;;;;;;5355632;26;20052;-79
2024/04/19 06:49:09;;;;;;;7.57;6.97;;;4.50;99.90;;;;;;5358436;26;20625;-77
2024/04/19 06:51:37;;;;;;;7.80;7.20;;;4.50;99.90;;;;;;5378419;26;20044;-77
2024/04/19 06:54:09;;;;;;;5.70;5.30;;;4.60;99.90;;;;;;5392464;26;20035;-79
2024/04/19 06:56:37;;;;;;;7.32;6.70;;;4.60;99.90;;;;;;5370737;26;20040;-78
2024/04/19 06:59:04;;;;;;;6.68;6.18;;;4.60;99.90;;;;;;5365718;26;20010;-78
2024/04/19 07:01:32;;;;;;;6.57;6.07;;;4.60;99.90;;;;;;5353024;26;20004;-77
2024/04/19 07:03:59;;;;;;;6.05;5.75;;;4.60;99.90;;;;;;5347802;26;20004;-77
2024/04/19 07:06:27;;;;;;;6.30;5.90;;;4.50;99.90;;;;;;5380535;26;20007;-76
2024/04/19 07:09:07;;;;;;;6.53;5.93;;;4.60;99.90;;;;;;5340366;26;20875;-77
2024/04/19 07:11:34;;;;;;;6.90;6.40;;;4.60;99.90;;;;;;5375191;26;19999;-81
2024/04/19 07:14:01;;;;;;;6.30;5.90;;;4.60;99.90;;;;;;5382372;26;19995;-77
2024/04/19 07:16:28;;;;;;;5.90;5.50;;;4.60;99.90;;;;;;5391180;26;20426;-77
2024/04/19 07:18:56;;;;;;;6.28;5.88;;;4.70;99.90;;;;;;5327096;26;20014;-77
2024/04/19 07:21:24;;;;;;;5.40;5.10;;;4.70;99.90;;;;;;5390129;26;20122;-78
2024/04/19 07:23:52;;;;;;;5.50;5.10;;;4.70;99.90;;;;;;5381622;26;20084;-77
2024/04/19 07:26:19;;;;;;;5.90;5.35;;;4.80;99.90;;;;;;5381430;26;20003;-77
2024/04/19 07:28:47;;;;;;;6.75;6.25;;;4.70;99.90;;;;;;5384119;26;20003;-79
2024/04/19 07:31:15;;;;;;;5.88;5.47;;;4.80;99.90;;;;;;5387449;26;20458;-77
2024/04/19 07:33:43;;;;;;;6.00;5.60;;;4.80;99.90;;;;;;5390505;26;20477;-76
2024/04/19 07:36:12;;;;;;;5.47;5.18;;;4.90;99.90;;;;;;5355151;26;19996;-78
2024/04/19 07:38:39;;;;;;;5.47;5.18;;;4.90;99.90;;;;;;5384747;26;20041;-77
2024/04/19 07:41:06;;;;;;;6.10;5.70;;;4.90;99.90;;;;;;5347142;26;20735;-79
2024/04/19 07:43:33;;;;;;;5.30;4.90;;;4.90;99.90;;;;;;5387137;26;19995;-78
2024/04/19 07:46:02;;;;;;;5.30;4.90;;;5.00;99.90;;;;;;5386525;26;20004;-78
2024/04/19 07:48:30;;;;;;;6.07;5.53;;;5.00;99.90;;;;;;5379552;26;20054;-77
2024/04/19 07:51:00;;;;;;;6.20;5.70;;;5.00;99.90;;;;;;5376732;26;19996;-77
2024/04/19 07:53:28;;;;;;;5.68;5.35;;;5.10;99.90;;;;;;5404621;26;20016;-79
2024/04/19 07:55:55;;;;;;;5.65;5.18;;;5.10;99.90;;;;;;5373024;26;20011;-78
2024/04/19 07:58:25;;;;;;;5.43;5.10;;;5.10;99.90;;;;;;5349595;26;20690;-77
2024/04/19 08:00:53;;;;;;;6.45;5.43;;;5.10;99.90;;;;;;5346748;26;19996;-78
2024/04/19 08:03:22;;;;;;;5.22;4.82;;;5.10;99.90;;;;;;5353638;26;20459;-79
2024/04/19 08:05:50;;;;;;;6.32;5.30;;;5.20;99.90;;;;;;5345646;26;20001;-79
2024/04/19 08:08:18;;;;;;;5.47;4.95;;;5.20;99.90;;;;;;5348431;26;20058;-77
2024/04/19 08:10:45;;;;;;;6.32;5.70;;;5.30;99.90;;;;;;5325275;26;20569;-78
2024/04/19 08:13:13;;;;;;;5.88;5.47;;;5.30;99.90;;;;;;5352933;26;20234;-78
2024/04/19 08:15:40;;;;;;;12.55;6.93;;;5.40;99.90;;;;;;5293906;26;21013;-80
2024/04/19 08:18:07;;;;;;;6.68;5.57;;;5.40;99.90;;;;;;5359690;26;20832;-77
2024/04/19 08:20:35;;;;;;;10.43;6.70;;;5.40;99.90;;;;;;5353374;26;20049;-78
2024/04/19 08:23:02;;;;;;;10.07;7.70;;;5.40;99.90;;;;;;5319248;26;20028;-81
2024/04/19 08:25:32;;;;;;;7.93;7.13;;;5.40;99.90;;;;;;5291596;26;20004;-77
2024/04/19 08:27:59;;;;;;;6.97;6.28;;;5.50;99.90;;;;;;5346475;26;20020;-78
2024/04/19 08:30:27;;;;;;;6.35;5.85;;;5.50;99.90;;;;;;5382898;26;20014;-79
2024/04/19 08:32:54;;;;;;;6.53;5.93;;;5.60;99.90;;;;;;5350377;26;20000;-79
2024/04/19 08:35:21;;;;;;;6.10;5.57;;;5.60;99.90;;;;;;5317965;26;20069;-78
2024/04/19 08:37:48;;;;;;;6.85;6.25;;;5.60;99.90;;;;;;5317804;26;20016;-77
2024/04/19 08:40:15;;;;;;;7.22;6.63;;;5.60;99.90;;;;;;5347790;26;20004;-77
2024/04/19 08:42:42;;;;;;;6.97;5.85;;;5.70;99.90;;;;;;5354800;26;20063;-77
2024/04/19 08:45:13;;;;;;;7.15;6.55;;;5.70;99.90;;;;;;5346946;26;20056;-77
2024/04/19 08:47:42;;;;;;;7.95;7.25;;;5.70;99.90;;;;;;5401659;26;20004;-77
2024/04/19 08:50:10;;;;;;;7.97;7.32;;;5.70;99.90;;;;;;5293770;26;20017;-77
2024/04/19 08:52:38;;;;;;;7.65;7.05;;;5.70;99.90;;;;;;5357148;26;20022;-77
2024/04/19 08:55:25;;;;;;;8.35;7.60;;;5.70;99.90;;;;;;5361861;26;20008;-78
2024/04/19 08:57:53;;;;;;;7.22;6.70;;;5.70;99.90;;;;;;5349860;26;20013;-78
2024/04/19 09:00:21;;;;;;;8.75;8.05;;;5.70;99.90;;;;;;5356800;26;20010;-78
2024/04/19 09:02:51;;;;;;;10.05;8.50;;;5.60;99.90;;;;;;5357907;26;20030;-77
2024/04/19 09:05:21;;;;;;;8.70;8.00;;;5.70;99.90;;;;;;5350700;26;20025;-77
2024/04/19 09:07:49;;;;;;;9.52;8.73;;;5.70;99.90;;;;;;5353985;26;20008;-78
2024/04/19 09:10:21;;;;;;;9.40;8.50;;;5.70;99.90;;;;;;5359084;26;19996;-78
2024/04/19 09:12:48;;;;;;;8.13;7.43;;;5.80;99.90;;;;;;5391001;26;20003;-76
2024/04/19 09:15:18;;;;;;;9.75;8.00;;;5.70;99.90;;;;;;5361123;26;20654;-78
2024/04/19 09:17:46;;;;;;;8.23;7.53;;;5.70;99.90;;;;;;5382161;26;20018;-78
2024/04/19 09:20:14;;;;;;;8.70;7.90;;;5.80;99.90;;;;;;5389496;26;21337;-77
2024/04/19 09:22:42;;;;;;;8.95;8.25;;;5.90;99.90;;;;;;5443070;26;20027;-78
2024/04/19 09:25:12;;;;;;;9.27;8.38;;;5.90;99.90;;;;;;5385983;26;20007;-78
2024/04/19 09:27:41;;;;;;;13.70;8.93;;;5.90;99.90;;;;;;5393499;26;20006;-77
2024/04/19 09:30:12;;;;;;;12.70;8.38;;;6.00;99.90;;;;;;5376093;26;20003;-78
2024/04/19 09:32:39;;;;;;;9.55;8.63;;;6.10;99.90;;;;;;5414292;26;20019;-77
2024/04/19 09:35:06;;;;;;;18.48;10.15;;;6.10;99.90;;;;;;5388516;26;19999;-78
2024/04/19 09:37:34;;;;;;;12.65;10.30;;;6.20;99.90;;;;;;5355714;26;20023;-77
2024/04/19 09:40:02;;;;;;;11.25;10.05;;;6.20;99.90;;;;;;5356727;26;20018;-79
2024/04/19 09:42:31;;;;;;;11.55;10.38;;;6.30;99.90;;;;;;5389931;26;20000;-77
2024/04/19 09:45:01;;;;;;;11.75;10.65;;;6.40;99.90;;;;;;5387784;26;20244;-76
2024/04/19 09:47:33;;;;;;;20.35;12.57;;;6.40;99.90;;;;;;5383547;26;20150;-79
2024/04/19 09:50:02;;;;;;;11.93;10.77;;;6.40;99.90;;;;;;5389235;26;20003;-79
2024/04/19 09:52:30;;;;;;;12.23;11.13;;;6.40;99.90;;;;;;5392884;26;20010;-78
2024/04/19 09:55:16;;;;;;;15.40;12.27;;;6.40;99.90;;;;;;5381464;26;20018;-80
2024/04/19 09:57:46;;;;;;;13.88;11.27;;;6.50;99.90;;;;;;5393992;26;20004;-77
2024/04/19 10:00:17;;;;;;;17.42;13.77;;;6.50;99.90;;;;;;5394220;26;20019;-79
2024/04/19 10:02:45;;;;;;;13.27;11.73;;;6.40;99.90;;;;;;5383219;26;19996;-79
2024/04/19 10:05:13;;;;;;;15.27;13.60;;;6.50;99.90;;;;;;5401761;26;20012;-77
2024/04/19 10:07:43;;;;;;;17.15;13.80;;;6.50;99.90;;;;;;5388832;26;20019;-78
2024/04/19 10:10:10;;;;;;;16.05;13.35;;;6.60;99.90;;;;;;5384810;26;20072;-77
2024/04/19 10:12:38;;;;;;;17.75;14.23;;;6.60;99.90;;;;;;5385815;26;20174;-78
2024/04/19 10:15:11;;;;;;;15.88;13.45;;;6.70;99.90;;;;;;5385542;26;20256;-79
2024/04/19 10:17:38;;;;;;;15.00;11.88;;;6.80;99.90;;;;;;5389103;26;20039;-78
2024/04/19 10:20:08;;;;;;;14.30;11.75;;;7.00;99.90;;;;;;5350196;26;20003;-78
2024/04/19 10:22:39;;;;;;;15.13;12.88;;;7.20;99.90;;;;;;5412202;26;20035;-80
2024/04/19 10:25:07;;;;;;;16.58;12.02;;;7.30;99.90;;;;;;5382809;26;20013;-79
2024/04/19 10:27:35;;;;;;;16.60;12.25;;;7.50;99.90;;;;;;5384015;26;20376;-76
2024/04/19 10:30:08;;;;;;;15.30;10.23;;;7.60;99.90;;;;;;5381383;26;20004;-77
2024/04/19 10:32:52;;;;;;;12.50;11.18;;;7.50;99.90;;;;;;5364734;26;20700;-78
2024/04/19 10:35:21;;;;;;;13.45;11.07;;;7.60;99.90;;;;;;5392040;26;21335;-77
2024/04/19 10:37:48;;;;;;;13.00;10.70;;;7.80;99.90;;;;;;5386734;26;20017;-77
2024/04/19 10:40:15;;;;;;;14.15;11.50;;;7.80;99.90;;;;;;5352564;26;20820;-77
2024/04/19 10:42:42;;;;;;;14.02;12.63;;;7.80;99.90;;;;;;5440580;26;20074;-76
2024/04/19 10:45:13;;;;;;;15.10;12.57;;;7.90;99.90;;;;;;5344472;26;20030;-76
2024/04/19 10:47:41;;;;;;;14.60;13.02;;;7.90;99.90;;;;;;5378952;26;20046;-75
2024/04/19 10:50:10;;;;;;;15.32;13.70;;;8.00;99.90;;;;;;5323404;26;20074;-76
2024/04/19 10:52:39;;;;;;;17.05;14.27;;;7.90;99.90;;;;;;5356460;26;20689;-76
2024/04/19 10:55:06;;;;;;;17.08;13.02;;;7.90;99.90;;;;;;5346906;26;20007;-77
2024/04/19 10:57:33;;;;;;;17.70;15.35;;;8.10;99.90;;;;;;5351830;26;20023;-75
2024/04/19 11:00:03;;;;;;;18.67;15.95;;;8.30;99.90;;;;;;5371329;26;20015;-76
2024/04/19 11:02:31;;;;;;;15.25;13.27;;;8.50;99.90;;;;;;5373270;26;20011;-76
2024/04/19 11:04:59;;;;;;;18.20;14.43;;;8.60;99.90;;;;;;5383727;26;20008;-77
2024/04/19 11:07:28;;;;;;;17.20;15.40;;;8.50;99.90;;;;;;5367192;26;20015;-77
2024/04/19 11:09:58;;;;;;;16.95;15.32;;;8.50;99.90;;;;;;5380470;26;20014;-76
2024/04/19 11:12:27;;;;;;;14.35;12.88;;;8.40;99.90;;;;;;5384809;26;20000;-74
2024/04/19 11:14:54;;;;;;;15.95;14.25;;;8.30;99.90;;;;;;5388682;26;20090;-76
2024/04/19 11:17:21;;;;;;;16.85;15.05;;;8.40;99.90;;;;;;5349119;26;20011;-75
2024/04/19 11:19:49;;;;;;;14.48;13.18;;;8.30;99.90;;;;;;5374954;26;20518;-78
2024/04/19 11:22:16;;;;;;;15.45;14.15;;;8.40;99.90;;;;;;5373901;26;20062;-77
2024/04/19 11:24:44;;;;;;;16.05;14.65;;;8.40;99.90;;;;;;5378875;26;20076;-75
2024/04/19 11:27:14;;;;;;;16.63;15.07;;;8.40;99.90;;;;;;5361764;26;20523;-77
2024/04/19 11:29:41;;;;;;;14.75;13.23;;;8.30;99.90;;;;;;5374500;26;20026;-78
2024/04/19 11:32:10;;;;;;;14.95;13.63;;;8.30;99.90;;;;;;5378860;26;20035;-77
2024/04/19 11:34:37;;;;;;;16.52;14.82;;;8.30;99.90;;;;;;5351182;26;20026;-80
2024/04/19 11:37:13;;;;;;;18.00;15.88;;;8.30;99.90;;;;;;5371710;26;20081;-79
2024/04/19 11:39:42;;;;;;;14.93;13.00;;;8.30;99.90;;;;;;5346688;26;20035;-80
2024/04/19 11:42:12;;;;;;;12.82;12.02;;;8.30;99.90;;;;;;5375162;26;20061;-78
2024/04/19 11:44:40;;;;;;;13.82;12.82;;;7.80;99.90;;;;;;5356254;26;19999;-78
2024/04/19 11:47:08;;;;;;;13.50;12.50;;;7.70;99.90;;;;;;5380841;26;20032;-78
2024/04/19 11:49:35;;;;;;;13.43;12.13;;;7.70;99.90;;;;;;5352750;26;20703;-78
2024/04/19 11:52:04;;;;;;;14.55;12.68;;;7.70;99.90;;;;;;5359016;26;20008;-77
2024/04/19 11:54:31;;;;;;;16.15;12.10;;;7.70;99.90;;;;;;5361135;26;20015;-79
2024/04/19 11:56:59;;;;;;;13.52;12.27;;;7.80;99.90;;;;;;5444258;26;19999;-78
2024/04/19 11:59:27;;;;;;;14.63;13.05;;;7.80;99.90;;;;;;5378638;26;20044;-77
2024/04/19 12:01:54;;;;;;;16.90;14.50;;;7.70;99.90;;;;;;5384784;26;20015;-78
2024/04/19 12:04:21;;;;;;;19.75;15.82;;;7.80;99.90;;;;;;5378322;26;20057;-78
2024/04/19 12:06:48;;;;;;;19.80;17.40;;;8.10;99.90;;;;;;5372410;26;20001;-78
2024/04/19 12:09:16;;;;;;;21.95;14.95;;;8.20;99.90;;;;;;5293151;26;20089;-78
2024/04/19 12:11:43;;;;;;;20.42;15.25;;;8.40;99.90;;;;;;5350248;26;20008;-77
2024/04/19 12:14:37;;;;;;;18.02;15.10;;;8.40;99.90;;;;;;5348762;26;20016;-78
2024/04/19 12:17:24;;;;;;;16.90;14.63;;;8.30;99.90;;;;;;5338288;26;20007;-76
2024/04/19 12:19:56;;;;;;;18.23;14.45;;;8.20;99.90;;;;;;5326463;26;20664;-75
2024/04/19 12:22:30;;;;;;;13.07;11.85;;;8.20;99.90;;;;;;5324570;26;20058;-75
2024/04/19 12:25:00;;;;;;;13.88;11.73;;;8.10;99.90;;;;;;5327761;26;20017;-76
2024/04/19 12:27:32;;;;;;;11.45;10.23;;;8.10;99.90;;;;;;5363964;26;20016;-74
2024/04/19 12:29:59;;;;;;;12.35;10.95;;;8.20;99.90;;;;;;5314759;26;20661;-78
2024/04/19 12:32:27;;;;;;;11.48;10.32;;;8.10;99.90;;;;;;5301345;26;20021;-75
2024/04/19 12:34:54;;;;;;;11.35;10.35;;;8.10;99.90;;;;;;5303323;26;20019;-75
2024/04/19 12:37:21;;;;;;;12.20;10.90;;;8.10;99.90;;;;;;5323127;26;20015;-77
2024/04/19 12:39:48;;;;;;;10.88;9.93;;;8.10;99.90;;;;;;5323305;26;20242;-75
2024/04/19 12:42:16;;;;;;;11.73;10.93;;;8.10;99.90;;;;;;5314561;26;20055;-76
2024/04/19 12:44:47;;;;;;;11.65;10.90;;;8.10;99.90;;;;;;5347979;26;20012;-75
2024/04/19 12:47:16;;;;;;;11.73;10.90;;;8.10;99.90;;;;;;5321193;26;20594;-76
2024/04/19 12:49:44;;;;;;;12.48;11.50;;;8.10;99.90;;;;;;5332370;26;20019;-74
2024/04/19 12:52:11;;;;;;;13.30;12.30;;;8.20;99.90;;;;;;5335967;26;20058;-77
2024/04/19 12:54:39;;;;;;;12.25;11.65;;;8.30;99.90;;;;;;5281262;26;20004;-77